Cherburgo-Octeville, Francia

10:00 AM CEST en Abril 01, 2015 (GMT +0200)
Alderney | | Change Station
CLOSE
Current Station
Aeropuerto
Location: Alderney,
Altura: 233 ft
Estaciones meteorológicas cercanas

Alt 233 ft 49.71 °N, 2.21 °W | Updated 10 minutes ago

Partly Cloudy
Parcialmente nublado
45 ° F
Sensación térmica 37 ° F
N
20
Viento Variable Viento desde ONO

Hoy
Alta -- | Baja -- ° F
--% Posibilidad de precipitaciones
Ayer
Alta -- | Baja -- ° F
Precip. -- pul
7:43 AM 8:36 PM
Gibosa creciente, 91% visible
Presión 30.39 pul
Visibilidad 6.2 Millas
Nubes Baja 2500 ft
Vientos helados 37 ° F
Punto de rocío 36 ° F
Humedad 71%
Precipitaciones 0.00 pul
Espesor de la nieve No disponible.
UV 1 de una escala de 12
Polen No disponible.
Calidad del aire No disponible.
Flu Activity No disponible.
METAR EGJA 010750Z 30017KT 9999 FEW025 07/02 Q1029

More Conditions Fewer Conditions

Presión 30.39 pul
Visibilidad 6.2 Millas
Nubes Baja 2500 ft
Vientos helados 37 ° F
Punto de rocío 36 ° F
Humedad 71%
Precipitaciones 0.00 pul
Espesor de la nieve No disponible.
UV 1 de una escala de 12
Polen No disponible.
Calidad del aire No disponible.
Flu Activity No disponible.
METAR EGJA 010750Z 30017KT 9999 FEW025 07/02 Q1029

More Conditions Fewer Conditions

10-Day Weather Forecast

Almanac

Astronomía

Apr. 01, 2015 Salida Puesta
Hora real
Crepúsculo civil
Crepúsculo náutico
Crepúsculo astronómico
Luna
Horas de luz
Horas de luz
Tomorrow will be .
, % of the Moon is Illuminated

Extremos de hoy

Máximos del país Bajas del país

Community

WunderPhotos

Upload Photos

1,809,930 ¡fotos cargadas!

WunderBlogs® & News

Nearby

Calidad del aire

  Calidad del aire Índice AQ Contaminante
Not available.

Grosos de nieve

Estación Profundido Altura

Actividad de terremotos

Ciudad Distance Mag. Tiempo y dato
Magnitud mínima muestra es 2,5.

Temperaturas de aguas costeras

Lugar Temperatura

Stations

Estaciones meteorológicas cercanas

Ubicación de la estación Temp. Vientos helados Punto de rocío Humedad Viento Precip. Alt Actualizado Tipo